createdAt,value
2019-04-07T00:00:59.732Z,88.00
2019-04-07T00:03:29.447Z,88.10
2019-04-07T00:05:59.786Z,88.40
2019-04-07T00:08:29.682Z,88.70
2019-04-07T00:10:59.243Z,88.30
2019-04-07T00:13:29.396Z,87.80
2019-04-07T00:15:59.197Z,87.60
2019-04-07T00:18:28.706Z,87.70
2019-04-07T00:20:58.519Z,87.90
2019-04-07T00:23:28.482Z,88.00
2019-04-07T00:25:58.081Z,88.40
2019-04-07T00:28:28.071Z,88.50
2019-04-07T00:30:57.590Z,88.70
2019-04-07T00:33:27.328Z,89.30
2019-04-07T00:35:56.940Z,89.50
2019-04-07T00:38:26.392Z,89.90
2019-04-07T00:40:55.899Z,89.80
2019-04-07T00:43:25.455Z,89.60
2019-04-07T00:45:54.961Z,89.70
2019-04-07T00:48:25.334Z,89.70
2019-04-07T00:50:55.805Z,89.60
2019-04-07T00:53:25.484Z,89.40
2019-04-07T00:55:55.034Z,89.70
2019-04-07T00:58:24.681Z,89.80
2019-04-07T01:00:54.151Z,89.80
2019-04-07T01:03:23.822Z,89.90
2019-04-07T01:05:53.353Z,89.80
2019-04-07T01:08:22.924Z,90.20
2019-04-07T01:10:52.537Z,90.10
2019-04-07T01:13:22.032Z,90.30
2019-04-07T01:15:51.578Z,90.60
2019-04-07T01:18:21.444Z,90.60
2019-04-07T01:20:50.939Z,90.80
2019-04-07T01:23:20.959Z,90.90
2019-04-07T01:25:51.036Z,91.10
2019-04-07T01:28:20.850Z,91.00
2019-04-07T01:30:51.579Z,91.20
2019-04-07T01:33:21.776Z,91.30
2019-04-07T01:35:51.344Z,91.50
2019-04-07T01:38:21.329Z,91.70
2019-04-07T01:41:16.290Z,91.70
2019-04-07T01:44:14.447Z,91.90
2019-04-07T01:46:56.931Z,92.00
2019-04-07T01:50:03.628Z,92.20
2019-04-07T01:52:42.500Z,92.40
2019-04-07T01:55:31.468Z,92.50
2019-04-07T01:58:26.394Z,92.80
2019-04-07T02:01:11.064Z,92.90
2019-04-07T02:03:59.522Z,93.00
2019-04-07T02:06:38.607Z,93.10
2019-04-07T02:09:21.461Z,92.90
2019-04-07T02:12:09.415Z,93.00
2019-04-07T02:15:03.943Z,93.20
2019-04-07T02:17:39.132Z,93.30
2019-04-07T02:20:24.595Z,93.40
2019-04-07T02:23:06.544Z,93.50
2019-04-07T02:25:53.787Z,93.60
2019-04-07T02:28:37.199Z,93.60
2019-04-07T02:31:45.075Z,93.80
2019-04-07T02:34:49.111Z,93.80
2019-04-07T02:37:29.098Z,94.00
2019-04-07T02:40:16.140Z,94.10
2019-04-07T02:42:54.392Z,94.40
2019-04-07T02:45:45.852Z,94.50
2019-04-07T02:48:28.279Z,94.60
2019-04-07T02:51:11.378Z,94.70
2019-04-07T02:54:00.656Z,94.80
2019-04-07T02:56:49.107Z,95.10
2019-04-07T02:59:27.129Z,95.20
2019-04-07T03:02:15.900Z,95.30
2019-04-07T03:05:04.163Z,95.50
2019-04-07T03:07:56.708Z,95.60
2019-04-07T03:10:46.055Z,95.60
2019-04-07T03:13:32.676Z,95.70
2019-04-07T03:16:09.437Z,95.70
2019-04-07T03:18:44.364Z,95.90
2019-04-07T03:21:39.032Z,95.90
2019-04-07T03:24:26.660Z,96.00
2019-04-07T03:27:24.298Z,96.30
2019-04-07T03:30:13.508Z,96.40
2019-04-07T03:33:13.619Z,96.40
2019-04-07T03:35:50.207Z,96.50
2019-04-07T03:38:37.090Z,96.50
2019-04-07T03:41:38.631Z,96.60
2019-04-07T03:44:26.521Z,96.60
2019-04-07T03:47:10.326Z,96.60
2019-04-07T03:50:00.006Z,96.80
2019-04-07T03:52:47.003Z,97.10
2019-04-07T03:55:24.577Z,97.10
2019-04-07T03:58:14.010Z,97.10
2019-04-07T04:01:28.348Z,96.90
2019-04-07T04:04:07.484Z,96.70
2019-04-07T04:06:54.910Z,96.90
2019-04-07T04:09:46.263Z,97.00
2019-04-07T04:12:21.306Z,97.10
2019-04-07T04:14:59.746Z,97.20
2019-04-07T04:17:30.436Z,97.30
2019-04-07T04:20:00.456Z,97.50
2019-04-07T04:22:30.806Z,97.40
2019-04-07T04:25:01.045Z,97.50
2019-04-07T04:27:31.299Z,97.70
2019-04-07T04:30:01.123Z,97.70
2019-04-07T04:32:30.994Z,98.10
2019-04-07T04:35:00.962Z,98.00
2019-04-07T04:37:40.344Z,98.00
2019-04-07T04:40:02.108Z,98.00
2019-04-07T04:42:31.643Z,98.20
2019-04-07T04:45:02.439Z,97.90
2019-04-07T04:47:32.852Z,97.70
2019-04-07T04:50:03.740Z,97.60
2019-04-07T04:52:33.417Z,97.50
2019-04-07T04:55:03.626Z,97.60
2019-04-07T04:57:33.973Z,97.40
2019-04-07T05:00:03.943Z,97.30
2019-04-07T05:02:34.807Z,97.10
2019-04-07T05:05:08.698Z,97.10
2019-04-07T05:07:48.112Z,97.00
2019-04-07T05:10:08.190Z,96.90
2019-04-07T05:12:37.916Z,96.80
2019-04-07T05:15:08.105Z,96.40
2019-04-07T05:17:38.124Z,96.40
2019-04-07T05:20:09.360Z,96.60
2019-04-07T05:22:39.235Z,95.90
2019-04-07T05:25:09.397Z,95.50
2019-04-07T05:27:39.187Z,95.00
2019-04-07T05:30:09.335Z,95.20
2019-04-07T05:32:39.054Z,95.30
2019-04-07T05:35:08.930Z,94.80
2019-04-07T05:37:38.536Z,94.20
2019-04-07T05:40:09.147Z,94.30
2019-04-07T05:42:39.054Z,94.30
2019-04-07T05:45:10.006Z,94.30
2019-04-07T05:47:43.669Z,93.60
2019-04-07T05:50:11.125Z,93.30
2019-04-07T05:52:40.946Z,93.00
2019-04-07T05:55:11.231Z,92.50
2019-04-07T05:57:41.008Z,92.40
2019-04-07T06:00:15.653Z,91.90
2019-04-07T06:02:44.089Z,92.00
2019-04-07T06:05:16.202Z,91.80
2019-04-07T06:07:44.895Z,91.10
2019-04-07T06:10:15.378Z,91.00
2019-04-07T06:12:48.056Z,91.10
2019-04-07T06:15:21.987Z,90.80
2019-04-07T06:17:50.004Z,90.40
2019-04-07T06:20:19.787Z,90.30
2019-04-07T06:22:52.839Z,90.30
2019-04-07T06:25:20.920Z,90.20
2019-04-07T06:27:51.046Z,90.10
2019-04-07T06:30:22.253Z,90.10
2019-04-07T06:32:51.807Z,90.30
2019-04-07T06:35:21.350Z,90.20
2019-04-07T06:37:51.094Z,90.20
2019-04-07T06:40:22.110Z,89.90
2019-04-07T06:42:51.831Z,89.30
2019-04-07T06:45:25.105Z,89.50
2019-04-07T06:47:57.104Z,89.50
2019-04-07T06:50:49.360Z,89.80
2019-04-07T06:53:34.871Z,89.90
2019-04-07T06:56:19.706Z,89.80
2019-04-07T06:59:17.675Z,90.10
2019-04-07T07:02:05.489Z,89.30
2019-04-07T07:04:53.917Z,89.60
2019-04-07T07:07:40.193Z,88.90
2019-04-07T07:10:30.253Z,89.20
2019-04-07T07:13:28.518Z,88.60
2019-04-07T07:16:19.595Z,89.30
2019-04-07T07:19:14.207Z,88.60
2019-04-07T07:22:10.031Z,88.30
2019-04-07T07:24:36.993Z,87.30
2019-04-07T07:27:09.386Z,87.20
2019-04-07T07:29:37.645Z,87.30
2019-04-07T07:32:07.178Z,86.80
2019-04-07T07:34:39.906Z,85.60
2019-04-07T07:37:08.404Z,84.70
2019-04-07T07:39:41.931Z,84.10
2019-04-07T07:42:09.594Z,81.70
2019-04-07T07:44:39.804Z,80.30
2019-04-07T07:47:10.258Z,79.10
2019-04-07T07:49:41.221Z,77.90
2019-04-07T07:52:11.611Z,75.40
2019-04-07T07:54:41.285Z,74.70
2019-04-07T07:57:11.187Z,74.70
2019-04-07T07:59:40.744Z,73.50
2019-04-07T08:02:10.964Z,70.90
2019-04-07T08:04:41.039Z,72.50
2019-04-07T08:07:13.420Z,73.30
2019-04-07T08:09:42.118Z,72.40
2019-04-07T08:12:12.532Z,70.00
2019-04-07T08:14:42.647Z,68.50
2019-04-07T08:17:12.308Z,67.50
2019-04-07T08:19:44.210Z,66.40
2019-04-07T08:22:24.910Z,67.00
2019-04-07T08:24:45.473Z,64.50
2019-04-07T08:27:15.113Z,63.30
2019-04-07T08:29:45.223Z,63.30
2019-04-07T08:32:14.791Z,62.70
2019-04-07T08:34:44.915Z,61.30
2019-04-07T08:37:15.489Z,60.90
2019-04-07T08:39:45.925Z,60.80
2019-04-07T08:42:18.587Z,60.50
2019-04-07T08:44:47.291Z,60.00
2019-04-07T08:47:21.820Z,59.80
2019-04-07T08:49:48.589Z,60.00
2019-04-07T08:52:18.519Z,58.30
2019-04-07T08:54:50.584Z,58.50
2019-04-07T08:57:19.697Z,58.80
2019-04-07T08:59:49.466Z,56.90
2019-04-07T09:02:19.967Z,56.60
2019-04-07T09:04:51.236Z,56.40
2019-04-07T09:07:23.367Z,56.20
2019-04-07T09:09:52.151Z,55.80
2019-04-07T09:12:21.836Z,57.10
2019-04-07T09:14:51.508Z,55.60
2019-04-07T09:17:45.792Z,55.90
2019-04-07T09:20:35.096Z,55.00
2019-04-07T09:23:20.145Z,55.80
2019-04-07T09:26:13.967Z,55.10
2019-04-07T09:28:52.936Z,55.40
2019-04-07T09:31:42.859Z,55.00
2019-04-07T09:34:32.320Z,55.30
2019-04-07T09:37:17.668Z,54.80
2019-04-07T09:40:05.756Z,56.00
2019-04-07T09:42:47.708Z,54.60
2019-04-07T09:45:28.784Z,55.30
2019-04-07T09:48:10.055Z,53.90
2019-04-07T09:50:59.038Z,54.40
2019-04-07T09:53:50.703Z,54.30
2019-04-07T09:56:45.146Z,54.70
2019-04-07T09:59:32.810Z,54.20
2019-04-07T10:02:20.798Z,53.80
2019-04-07T10:05:11.174Z,53.60
2019-04-07T10:07:51.976Z,52.80
2019-04-07T10:10:40.471Z,53.70
2019-04-07T10:13:41.012Z,53.60
2019-04-07T10:16:32.974Z,52.40
2019-04-07T10:19:18.009Z,52.00
2019-04-07T10:22:05.413Z,51.60
2019-04-07T10:24:52.559Z,51.20
2019-04-07T10:27:44.084Z,51.70
2019-04-07T10:30:36.106Z,52.70
2019-04-07T10:33:17.960Z,50.20
2019-04-07T10:36:19.401Z,49.90
2019-04-07T10:39:27.542Z,49.80
2019-04-07T10:42:19.028Z,48.50
2019-04-07T10:45:00.406Z,48.40
2019-04-07T10:48:03.988Z,48.60
2019-04-07T10:50:53.470Z,48.00
2019-04-07T10:53:45.187Z,46.20
2019-04-07T10:56:25.486Z,47.10
2019-04-07T10:59:14.948Z,46.90
2019-04-07T11:01:58.120Z,48.20
2019-04-07T11:04:47.419Z,46.30
2019-04-07T11:07:36.086Z,46.40
2019-04-07T11:10:33.020Z,46.20
2019-04-07T11:13:16.832Z,45.80
2019-04-07T11:15:57.610Z,45.90
2019-04-07T11:18:51.783Z,45.80
2019-04-07T11:21:39.342Z,46.30
2019-04-07T11:24:31.601Z,44.90
2019-04-07T11:27:32.932Z,45.10
2019-04-07T11:30:11.398Z,45.20
2019-04-07T11:33:00.818Z,44.30
2019-04-07T11:35:41.390Z,44.50
2019-04-07T11:38:33.005Z,44.10
2019-04-07T11:41:25.482Z,43.50
2019-04-07T11:44:03.101Z,44.60
2019-04-07T11:46:51.942Z,44.20
2019-04-07T11:49:31.590Z,42.70
2019-04-07T11:52:23.583Z,41.50
2019-04-07T11:55:28.237Z,42.20
2019-04-07T11:58:16.922Z,41.70
2019-04-07T12:01:03.570Z,41.90
2019-04-07T12:03:42.897Z,40.60
2019-04-07T12:06:30.229Z,40.40
2019-04-07T12:09:25.827Z,41.30
2019-04-07T12:12:18.168Z,41.20
2019-04-07T12:15:00.822Z,40.50
2019-04-07T12:17:50.170Z,40.40
2019-04-07T12:20:37.646Z,40.00
2019-04-07T12:23:38.239Z,40.40
2019-04-07T12:26:38.038Z,39.60
2019-04-07T12:29:23.269Z,39.70
2019-04-07T12:32:18.119Z,39.50
2019-04-07T12:35:17.145Z,39.10
2019-04-07T12:37:59.209Z,38.70
2019-04-07T12:40:54.841Z,39.40
2019-04-07T12:44:00.548Z,39.40
2019-04-07T12:46:48.152Z,39.70
2019-04-07T12:49:39.220Z,38.80
2019-04-07T12:52:28.040Z,40.10
2019-04-07T12:55:37.370Z,39.70
2019-04-07T12:58:26.603Z,38.90
2019-04-07T13:01:16.287Z,39.40
2019-04-07T13:03:51.125Z,38.80
2019-04-07T13:06:28.753Z,39.20
2019-04-07T13:09:29.702Z,39.40
2019-04-07T13:12:25.926Z,39.90
2019-04-07T13:15:03.875Z,39.70
2019-04-07T13:18:03.591Z,39.30
2019-04-07T13:20:39.719Z,39.90
2019-04-07T13:23:31.608Z,40.40
2019-04-07T13:26:30.290Z,40.20
2019-04-07T13:29:11.816Z,40.00
2019-04-07T13:32:01.665Z,39.10
2019-04-07T13:34:51.160Z,39.10
2019-04-07T13:37:25.399Z,40.30
2019-04-07T13:40:01.460Z,40.50
2019-04-07T13:43:09.353Z,40.00
2019-04-07T13:46:03.979Z,40.20
2019-04-07T13:48:58.663Z,40.60
2019-04-07T13:51:32.335Z,40.60
2019-04-07T13:54:20.101Z,40.10
2019-04-07T13:57:09.094Z,40.30
2019-04-07T14:00:04.131Z,40.20
2019-04-07T14:02:56.056Z,39.70
2019-04-07T14:05:44.774Z,39.80
2019-04-07T14:08:33.186Z,40.20
2019-04-07T14:11:24.995Z,40.90
2019-04-07T14:14:29.354Z,40.00
2019-04-07T14:17:17.834Z,40.70
2019-04-07T14:20:00.550Z,40.60
2019-04-07T14:22:44.245Z,41.30
2019-04-07T14:25:35.991Z,41.20
2019-04-07T14:28:24.449Z,41.10
2019-04-07T14:31:25.210Z,41.50
2019-04-07T14:34:17.132Z,41.80
2019-04-07T14:37:04.374Z,41.80
2019-04-07T14:39:58.881Z,41.90
2019-04-07T14:42:57.157Z,42.00
2019-04-07T14:45:41.703Z,41.80
2019-04-07T14:48:35.985Z,42.20
2019-04-07T14:51:43.680Z,42.10
2019-04-07T14:54:38.169Z,42.80
2019-04-07T14:57:25.527Z,42.80
2019-04-07T15:00:17.274Z,43.30
2019-04-07T15:02:47.677Z,43.00
2019-04-07T15:05:24.024Z,42.80
2019-04-07T15:08:10.603Z,43.20
2019-04-07T15:11:02.646Z,43.50
2019-04-07T15:13:32.183Z,43.70
2019-04-07T15:16:02.405Z,43.60
2019-04-07T15:18:32.070Z,44.10
2019-04-07T15:21:01.678Z,43.90
2019-04-07T15:23:32.874Z,44.30
2019-04-07T15:26:03.334Z,44.30
2019-04-07T15:28:33.798Z,44.30
2019-04-07T15:31:04.256Z,44.60
2019-04-07T15:33:34.181Z,44.90
2019-04-07T15:36:07.838Z,45.40
2019-04-07T15:38:37.408Z,44.50
2019-04-07T15:41:11.796Z,44.80
2019-04-07T15:43:38.368Z,44.60
2019-04-07T15:46:08.420Z,44.90
2019-04-07T15:48:38.799Z,45.60
2019-04-07T15:51:09.080Z,45.00
2019-04-07T15:53:38.699Z,45.50
2019-04-07T15:56:08.372Z,45.50
2019-04-07T15:58:38.045Z,45.40
2019-04-07T16:01:09.387Z,45.50
2019-04-07T16:03:38.838Z,46.40
2019-04-07T16:06:09.515Z,45.60
2019-04-07T16:08:39.433Z,45.80
2019-04-07T16:11:09.204Z,46.10
2019-04-07T16:13:39.108Z,46.00
2019-04-07T16:16:29.462Z,46.50
2019-04-07T16:18:59.382Z,46.80
2019-04-07T16:21:29.797Z,47.20
2019-04-07T16:23:59.673Z,47.50
2019-04-07T16:26:31.200Z,48.50
2019-04-07T16:29:01.181Z,47.70
2019-04-07T16:31:31.145Z,47.60
2019-04-07T16:34:03.376Z,47.60
2019-04-07T16:36:32.487Z,47.70
2019-04-07T16:39:03.202Z,48.30
2019-04-07T16:41:32.955Z,48.60
2019-04-07T16:44:04.799Z,49.00
2019-04-07T16:46:33.813Z,49.30
2019-04-07T16:49:03.300Z,49.60
2019-04-07T16:51:33.888Z,50.00
2019-04-07T16:54:08.054Z,50.60
2019-04-07T16:56:35.173Z,51.30
2019-04-07T16:59:08.418Z,51.80
2019-04-07T17:01:36.676Z,52.20
2019-04-07T17:04:06.423Z,52.50
2019-04-07T17:06:36.360Z,52.70
2019-04-07T17:09:11.015Z,53.20
2019-04-07T17:11:40.856Z,53.50
2019-04-07T17:14:10.597Z,54.10
2019-04-07T17:16:44.173Z,54.70
2019-04-07T17:19:11.398Z,55.70
2019-04-07T17:21:42.668Z,55.40
2019-04-07T17:24:13.078Z,55.70
2019-04-07T17:26:43.556Z,56.10
2019-04-07T17:29:17.154Z,56.40
2019-04-07T17:31:44.737Z,56.70
2019-04-07T17:34:15.658Z,57.20
2019-04-07T17:36:48.459Z,57.50
2019-04-07T17:39:45.023Z,58.00
2019-04-07T17:42:15.632Z,58.40
2019-04-07T17:45:23.263Z,58.90
2019-04-07T17:48:21.375Z,59.40
2019-04-07T17:51:22.801Z,60.00
2019-04-07T17:54:10.472Z,60.70
2019-04-07T17:57:03.114Z,61.10
2019-04-07T17:59:53.605Z,62.10
2019-04-07T18:02:53.139Z,62.80
2019-04-07T18:05:38.726Z,63.90
2019-04-07T18:08:36.275Z,64.70
2019-04-07T18:11:25.169Z,65.60
2019-04-07T18:14:13.443Z,66.70
2019-04-07T18:17:09.883Z,67.20
2019-04-07T18:19:49.211Z,69.10
2019-04-07T18:22:47.641Z,69.80
2019-04-07T18:25:35.186Z,70.70
2019-04-07T18:28:31.365Z,71.60
2019-04-07T18:31:17.819Z,72.60
2019-04-07T18:34:23.857Z,74.10
2019-04-07T18:37:20.892Z,75.40
2019-04-07T18:40:09.869Z,76.10
2019-04-07T18:42:57.729Z,77.50
2019-04-07T18:45:48.326Z,78.90
2019-04-07T18:48:34.938Z,80.40
2019-04-07T18:51:29.455Z,80.40
2019-04-07T18:54:20.129Z,80.80
2019-04-07T18:57:21.583Z,81.30
2019-04-07T19:00:06.006Z,81.90
2019-04-07T19:02:53.634Z,82.20
2019-04-07T19:05:34.224Z,82.70
2019-04-07T19:08:19.083Z,83.30
2019-04-07T19:11:28.273Z,83.70
2019-04-07T19:14:34.300Z,84.70
2019-04-07T19:17:22.373Z,85.00
2019-04-07T19:20:08.894Z,86.30
2019-04-07T19:22:54.925Z,86.50
2019-04-07T19:25:47.866Z,87.20
2019-04-07T19:28:35.577Z,87.40
2019-04-07T19:31:30.041Z,87.70
2019-04-07T19:34:12.966Z,88.00
2019-04-07T19:36:59.777Z,89.10
2019-04-07T19:40:01.222Z,88.40
2019-04-07T19:42:42.849Z,88.70
2019-04-07T19:45:27.835Z,89.50
2019-04-07T19:48:25.519Z,90.10
2019-04-07T19:51:10.029Z,90.20
2019-04-07T19:54:00.597Z,90.40
2019-04-07T19:56:47.912Z,90.50
2019-04-07T19:59:28.184Z,90.70
2019-04-07T20:02:05.322Z,90.70
2019-04-07T20:04:53.530Z,90.80
2019-04-07T20:07:41.960Z,90.90
2019-04-07T20:10:24.081Z,91.00
2019-04-07T20:13:19.895Z,91.10
2019-04-07T20:16:17.793Z,91.00
2019-04-07T20:19:16.669Z,91.50
2019-04-07T20:22:04.776Z,91.70
2019-04-07T20:24:53.002Z,91.90
2019-04-07T20:27:31.872Z,92.40
2019-04-07T20:30:15.452Z,92.20
2019-04-07T20:33:09.759Z,92.20
2019-04-07T20:35:55.499Z,92.40
2019-04-07T20:38:37.946Z,92.50
2019-04-07T20:41:15.753Z,92.50
2019-04-07T20:44:07.661Z,92.70
2019-04-07T20:47:05.200Z,92.90
2019-04-07T20:50:12.961Z,93.10
2019-04-07T20:53:12.460Z,93.30
2019-04-07T20:55:45.255Z,93.40
2019-04-07T20:58:28.106Z,93.50
2019-04-07T21:01:18.746Z,93.60
2019-04-07T21:04:04.956Z,93.70
2019-04-07T21:06:54.005Z,93.70
2019-04-07T21:09:48.323Z,93.90
2019-04-07T21:12:40.093Z,94.00
2019-04-07T21:15:31.583Z,94.30
2019-04-07T21:18:12.437Z,94.60
2019-04-07T21:21:01.549Z,94.50
2019-04-07T21:23:50.871Z,94.60
2019-04-07T21:26:41.449Z,94.50
2019-04-07T21:29:26.459Z,94.80
2019-04-07T21:32:09.952Z,95.10
2019-04-07T21:35:01.404Z,95.30
2019-04-07T21:37:49.369Z,95.40
2019-04-07T21:40:41.224Z,95.60
2019-04-07T21:43:32.581Z,95.60
2019-04-07T21:46:22.309Z,95.90
2019-04-07T21:49:05.581Z,95.60
2019-04-07T21:51:51.439Z,95.90
2019-04-07T21:54:36.611Z,96.10
2019-04-07T21:57:14.863Z,96.30
2019-04-07T22:00:01.093Z,96.40
2019-04-07T22:02:52.303Z,96.50
2019-04-07T22:05:40.053Z,96.60
2019-04-07T22:10:57.966Z,96.60
2019-04-07T22:13:28.512Z,97.00
2019-04-07T22:16:01.624Z,97.00
2019-04-07T22:18:29.269Z,97.10
2019-04-07T22:20:59.182Z,97.20
2019-04-07T22:23:30.731Z,97.30
2019-04-07T22:26:00.046Z,97.30
2019-04-07T22:28:30.427Z,97.40
2019-04-07T22:31:01.483Z,97.50
2019-04-07T22:33:32.542Z,97.60
2019-04-07T22:36:02.572Z,97.70
2019-04-07T22:38:32.076Z,97.80
2019-04-07T22:41:02.649Z,97.90
2019-04-07T22:43:32.375Z,98.00
2019-04-07T22:46:08.569Z,98.10
2019-04-07T22:48:34.368Z,98.10
2019-04-07T22:51:09.249Z,98.10
2019-04-07T22:53:35.080Z,98.30
2019-04-07T22:56:07.365Z,98.30
2019-04-07T22:58:36.124Z,98.40
2019-04-07T23:01:07.568Z,98.50
2019-04-07T23:03:37.218Z,98.60
2019-04-07T23:06:06.855Z,98.70
2019-04-07T23:08:36.973Z,98.80
2019-04-07T23:11:06.491Z,98.70
2019-04-07T23:13:35.993Z,98.80
2019-04-07T23:16:10.820Z,98.70
2019-04-07T23:18:36.782Z,98.60
2019-04-07T23:21:07.884Z,98.40
2019-04-07T23:23:37.818Z,98.50
2019-04-07T23:26:07.539Z,98.50
2019-04-07T23:28:37.061Z,98.50
2019-04-07T23:31:07.500Z,98.80
2019-04-07T23:33:38.206Z,99.00
2019-04-07T23:36:08.115Z,99.20
2019-04-07T23:38:37.741Z,99.30
2019-04-07T23:41:07.254Z,99.50
2019-04-07T23:43:37.606Z,99.50
2019-04-07T23:46:18.776Z,99.70
2019-04-07T23:48:38.269Z,99.80
2019-04-07T23:51:07.754Z,99.90
2019-04-07T23:54:09.163Z,99.80
2019-04-07T23:56:39.894Z,99.90
2019-04-07T23:59:10.216Z,99.70
